createdAt,value
2022-08-17T00:03:17.207Z,100385.38
2022-08-17T00:06:42.047Z,100380.97
2022-08-17T00:10:07.024Z,100394.06
2022-08-17T00:13:41.047Z,100395.03
2022-08-17T00:17:05.053Z,100391.44
2022-08-17T00:20:30.557Z,100386.66
2022-08-17T00:23:57.048Z,100384.69
2022-08-17T00:27:18.050Z,100396.31
2022-08-17T00:30:50.970Z,100393.38
2022-08-17T00:34:12.062Z,100394.47
2022-08-17T00:37:33.052Z,100390.03
2022-08-17T00:40:59.465Z,100393.38
2022-08-17T00:44:20.073Z,100388.72
2022-08-17T00:47:41.044Z,100384.69
2022-08-17T00:51:17.051Z,100382.69
2022-08-17T00:54:51.057Z,100388.63
2022-08-17T00:58:15.058Z,100384.38
2022-08-17T01:01:36.110Z,100384.00
2022-08-17T01:05:00.102Z,100380.19
2022-08-17T01:08:26.070Z,100377.19
2022-08-17T01:11:47.067Z,100379.22
2022-08-17T01:15:08.066Z,100377.59
2022-08-17T01:18:29.053Z,100374.72
2022-08-17T01:22:14.048Z,100375.16
2022-08-17T01:25:36.073Z,100372.16
2022-08-17T01:28:57.059Z,100370.75
2022-08-17T01:32:20.069Z,100371.34
2022-08-17T01:35:41.059Z,100375.03
2022-08-17T01:39:02.080Z,100369.16
2022-08-17T01:42:36.041Z,100378.06
2022-08-17T01:46:02.706Z,100375.06
2022-08-17T01:49:26.096Z,100369.78
2022-08-17T01:52:47.158Z,100371.59
2022-08-17T01:56:12.092Z,100372.59
2022-08-17T01:59:34.059Z,100372.03
2022-08-17T02:02:55.099Z,100373.66
2022-08-17T02:06:27.721Z,100370.97
2022-08-17T02:09:52.799Z,100372.75
2022-08-17T02:13:15.109Z,100375.16
2022-08-17T02:16:38.229Z,100369.88
2022-08-17T02:19:59.073Z,100367.47
2022-08-17T02:23:21.082Z,100366.66
2022-08-17T02:26:42.068Z,100368.28
2022-08-17T02:30:03.100Z,100371.06
2022-08-17T02:33:24.079Z,100370.22
2022-08-17T02:37:03.095Z,100358.97
2022-08-17T02:40:36.308Z,100363.19
2022-08-17T02:44:03.097Z,100378.16
2022-08-17T02:47:18.086Z,100376.34
2022-08-17T02:50:39.128Z,100377.16
2022-08-17T02:54:02.210Z,100370.41
2022-08-17T02:57:34.092Z,100366.09
2022-08-17T03:00:57.085Z,100361.97
2022-08-17T03:04:18.102Z,100363.94
2022-08-17T03:07:39.108Z,100368.00
2022-08-17T03:11:00.091Z,100363.66
2022-08-17T03:14:21.106Z,100368.06
2022-08-17T03:17:47.097Z,100367.00
2022-08-17T03:21:11.112Z,100366.13
2022-08-17T03:24:32.112Z,100360.72
2022-08-17T03:27:53.127Z,100364.09
2022-08-17T03:31:14.104Z,100361.75
2022-08-17T03:34:35.128Z,100359.38
2022-08-17T03:38:00.277Z,100358.25
2022-08-17T03:41:22.138Z,100365.66
2022-08-17T03:44:43.122Z,100362.66
2022-08-17T03:48:16.133Z,100362.59
2022-08-17T03:51:56.116Z,100369.44
2022-08-17T03:55:36.205Z,100365.88
2022-08-17T03:58:57.110Z,100366.34
2022-08-17T04:02:50.257Z,100364.63
2022-08-17T04:06:11.178Z,100367.41
2022-08-17T04:09:32.117Z,100355.47
2022-08-17T04:12:58.134Z,100363.75
2022-08-17T04:16:19.136Z,100362.59
2022-08-17T04:19:40.146Z,100351.69
2022-08-17T04:23:21.128Z,100354.34
2022-08-17T04:26:53.923Z,100358.84
2022-08-17T04:30:16.128Z,100352.22
2022-08-17T04:33:40.129Z,100359.13
2022-08-17T04:37:01.134Z,100345.63
2022-08-17T04:40:40.131Z,100356.31
2022-08-17T04:44:05.136Z,100362.38
2022-08-17T04:47:26.126Z,100351.47
2022-08-17T04:50:54.124Z,100353.84
2022-08-17T04:54:27.128Z,100356.13
2022-08-17T04:57:48.123Z,100350.38
2022-08-17T05:01:09.163Z,100347.75
2022-08-17T05:04:34.422Z,100352.34
2022-08-17T05:07:56.128Z,100342.28
2022-08-17T05:11:17.161Z,100338.88
2022-08-17T05:14:38.136Z,100337.66
2022-08-17T05:17:59.147Z,100327.91
2022-08-17T05:21:20.144Z,100329.59
2022-08-17T05:24:43.323Z,100326.00
2022-08-17T05:28:14.141Z,100327.19
2022-08-17T05:31:37.146Z,100321.47
2022-08-17T05:34:58.137Z,100326.38
2022-08-17T05:38:20.151Z,100321.19
2022-08-17T05:41:41.139Z,100326.13
2022-08-17T05:45:02.177Z,100325.81
2022-08-17T05:48:35.479Z,100314.03
2022-08-17T05:52:25.150Z,100311.25
2022-08-17T05:55:54.167Z,100312.34
2022-08-17T05:59:42.157Z,100316.09
2022-08-17T06:03:40.167Z,100319.13
2022-08-17T06:07:12.160Z,100315.78
2022-08-17T06:10:45.202Z,100313.44
2022-08-17T06:14:22.159Z,100310.09
2022-08-17T06:17:43.224Z,100315.53
2022-08-17T06:21:10.190Z,100318.78
2022-08-17T06:24:46.169Z,100318.81
2022-08-17T06:28:16.156Z,100321.56
2022-08-17T06:31:45.180Z,100314.16
2022-08-17T06:35:07.161Z,100315.84
2022-08-17T06:38:39.234Z,100316.50
2022-08-17T06:42:55.126Z,100316.25
2022-08-17T06:46:24.172Z,100318.25
2022-08-17T06:50:03.200Z,100318.34
2022-08-17T06:53:40.183Z,100317.06
2022-08-17T06:57:32.170Z,100308.06
2022-08-17T07:00:59.293Z,100315.25
2022-08-17T07:04:24.175Z,100306.81
2022-08-17T07:07:58.199Z,100304.97
2022-08-17T07:11:27.210Z,100303.66
2022-08-17T07:15:02.235Z,100301.81
2022-08-17T07:18:23.196Z,100293.06
2022-08-17T07:21:51.205Z,100287.72
2022-08-17T07:25:16.210Z,100295.47
2022-08-17T07:28:43.213Z,100285.09
2022-08-17T07:32:04.180Z,100292.09
2022-08-17T07:35:37.826Z,100280.38
2022-08-17T07:39:10.185Z,100287.31
2022-08-17T07:42:31.199Z,100284.94
2022-08-17T07:46:52.208Z,100284.16
2022-08-17T07:50:15.208Z,100274.81
2022-08-17T07:53:39.179Z,100275.06
2022-08-17T07:57:29.911Z,100272.41
2022-08-17T08:00:51.204Z,100270.03
2022-08-17T08:04:16.333Z,100275.59
2022-08-17T08:07:38.313Z,100271.34
2022-08-17T08:11:12.218Z,100274.50
2022-08-17T08:14:41.261Z,100273.19
2022-08-17T08:18:10.177Z,100272.38
2022-08-17T08:21:57.258Z,100272.09
2022-08-17T08:25:56.223Z,100265.41
2022-08-17T08:29:51.236Z,100268.31
2022-08-17T08:33:45.221Z,100262.44
2022-08-17T08:37:49.292Z,100266.69
2022-08-17T08:41:21.218Z,100264.03
2022-08-17T08:45:03.875Z,100256.25
2022-08-17T08:48:53.692Z,100253.50
2022-08-17T08:52:42.218Z,100244.88
2022-08-17T08:56:06.240Z,100244.84
2022-08-17T08:59:58.202Z,100246.97
2022-08-17T09:03:37.632Z,100239.72
2022-08-17T09:07:31.260Z,100241.81
2022-08-17T09:11:06.205Z,100231.09
2022-08-17T09:15:16.235Z,100240.44
2022-08-17T09:22:31.247Z,100242.28
2022-08-17T09:26:44.236Z,100230.72
2022-08-17T09:30:13.237Z,100229.06
2022-08-17T09:33:38.218Z,100232.75
2022-08-17T09:37:12.210Z,100225.19
2022-08-17T09:41:12.230Z,100216.84
2022-08-17T09:45:17.268Z,100220.22
2022-08-17T09:49:02.242Z,100225.50
2022-08-17T09:52:39.240Z,100227.31
2022-08-17T09:56:18.225Z,100218.44
2022-08-17T09:59:45.241Z,100221.34
2022-08-17T10:03:27.223Z,100219.75
2022-08-17T10:07:08.259Z,100225.88
2022-08-17T10:10:36.236Z,100214.50
2022-08-17T10:14:36.950Z,100209.03
2022-08-17T10:18:08.242Z,100204.19
2022-08-17T10:21:50.249Z,100212.50
2022-08-17T10:25:56.472Z,100213.06
2022-08-17T10:29:26.275Z,100206.63
2022-08-17T10:33:01.314Z,100203.75
2022-08-17T10:36:59.256Z,100202.72
2022-08-17T10:40:39.268Z,100206.59
2022-08-17T10:44:37.209Z,100201.38
2022-08-17T10:48:13.648Z,100198.69
2022-08-17T10:51:55.264Z,100202.63
2022-08-17T10:55:22.236Z,100199.84
2022-08-17T10:58:52.250Z,100197.47
2022-08-17T11:02:35.235Z,100193.25
2022-08-17T11:06:22.263Z,100194.06
2022-08-17T11:10:02.253Z,100192.59
2022-08-17T11:13:55.265Z,100186.22
2022-08-17T11:18:08.258Z,100180.84
2022-08-17T11:21:57.242Z,100177.09
2022-08-17T11:25:45.268Z,100177.84
2022-08-17T11:29:12.282Z,100185.22
2022-08-17T11:32:59.247Z,100178.88
2022-08-17T11:36:37.268Z,100176.31
2022-08-17T11:40:11.365Z,100172.34
2022-08-17T11:44:02.274Z,100169.59
2022-08-17T11:48:25.917Z,100163.03
2022-08-17T11:52:14.273Z,100153.69
2022-08-17T11:56:10.292Z,100160.34
2022-08-17T11:59:47.280Z,100156.81
2022-08-17T12:03:33.404Z,100149.84
2022-08-17T12:07:01.262Z,100147.28
2022-08-17T12:10:43.310Z,100147.56
2022-08-17T12:14:11.642Z,100148.56
2022-08-17T12:17:42.352Z,100142.16
2022-08-17T12:21:42.326Z,100145.84
2022-08-17T12:25:11.281Z,100147.63
2022-08-17T12:28:44.290Z,100143.38
2022-08-17T12:32:08.373Z,100143.53
2022-08-17T12:35:43.270Z,100138.28
2022-08-17T12:39:14.754Z,100142.88
2022-08-17T12:42:51.292Z,100137.09
2022-08-17T12:46:13.310Z,100133.44
2022-08-17T12:49:46.295Z,100130.22
2022-08-17T12:53:07.279Z,100136.47
2022-08-17T12:56:28.277Z,100123.97
2022-08-17T12:59:55.302Z,100125.53
2022-08-17T13:03:20.288Z,100134.91
2022-08-17T13:06:46.305Z,100135.19
2022-08-17T13:10:07.298Z,100127.75
2022-08-17T13:13:38.304Z,100131.81
2022-08-17T13:17:13.571Z,100131.03
2022-08-17T13:20:34.321Z,100121.34
2022-08-17T13:23:55.317Z,100131.72
2022-08-17T13:27:16.313Z,100127.66
2022-08-17T13:30:41.289Z,100120.25
2022-08-17T13:34:02.310Z,100113.84
2022-08-17T13:37:48.695Z,100129.72
2022-08-17T13:41:10.305Z,100119.03
2022-08-17T13:44:44.306Z,100123.09
2022-08-17T13:48:18.316Z,100111.41
2022-08-17T13:51:43.300Z,100115.97
2022-08-17T13:55:05.303Z,100106.72
2022-08-17T13:58:34.360Z,100108.34
2022-08-17T14:02:01.395Z,100105.94
2022-08-17T14:05:22.319Z,100107.00
2022-08-17T14:08:46.310Z,100104.97
2022-08-17T14:12:10.345Z,100107.84
2022-08-17T14:15:55.024Z,100106.75
2022-08-17T14:19:16.318Z,100105.44
2022-08-17T14:22:44.312Z,100103.81
2022-08-17T14:26:05.328Z,100107.00
2022-08-17T14:29:26.305Z,100099.88
2022-08-17T14:32:50.336Z,100102.19
2022-08-17T14:36:11.308Z,100092.16
2022-08-17T14:39:32.360Z,100093.44
2022-08-17T14:42:48.405Z,100101.03
2022-08-17T14:46:02.341Z,100100.25
2022-08-17T14:49:27.306Z,100109.13
2022-08-17T14:52:48.308Z,100102.56
2022-08-17T14:56:09.313Z,100101.78
2022-08-17T14:59:30.343Z,100099.25
2022-08-17T15:03:05.339Z,100092.84
2022-08-17T15:06:26.308Z,100093.31
2022-08-17T15:09:48.329Z,100099.88
2022-08-17T15:13:12.315Z,100099.03
2022-08-17T15:16:33.325Z,100090.06
2022-08-17T15:19:54.365Z,100097.69
2022-08-17T15:23:16.336Z,100098.91
2022-08-17T15:26:37.314Z,100092.09
2022-08-17T15:29:58.361Z,100093.00
2022-08-17T15:33:19.335Z,100094.53
2022-08-17T15:36:40.667Z,100092.75
2022-08-17T15:40:10.347Z,100090.50
2022-08-17T15:43:42.348Z,100089.09
2022-08-17T15:47:03.355Z,100087.59
2022-08-17T15:50:24.349Z,100094.53
2022-08-17T15:53:45.337Z,100092.25
2022-08-17T15:57:06.359Z,100093.41
2022-08-17T16:00:27.340Z,100092.47
2022-08-17T16:04:03.753Z,100094.53
2022-08-17T16:07:29.363Z,100105.72
2022-08-17T16:10:50.373Z,100101.34
2022-08-17T16:14:11.326Z,100104.91
2022-08-17T16:17:40.029Z,100099.84
2022-08-17T16:21:01.358Z,100100.47
2022-08-17T16:24:22.361Z,100099.97
2022-08-17T16:27:43.447Z,100104.16
2022-08-17T16:31:04.433Z,100098.53
2022-08-17T16:34:25.347Z,100104.38
2022-08-17T16:37:47.375Z,100115.28
2022-08-17T16:41:08.333Z,100109.31
2022-08-17T16:44:30.388Z,100104.09
2022-08-17T16:47:51.397Z,100108.53
2022-08-17T16:51:12.392Z,100113.72
2022-08-17T16:54:33.379Z,100122.34
2022-08-17T16:57:54.401Z,100111.50
2022-08-17T17:01:15.388Z,100120.38
2022-08-17T17:04:46.371Z,100116.69
2022-08-17T17:08:32.364Z,100122.88
2022-08-17T17:12:08.367Z,100118.91
2022-08-17T17:15:30.360Z,100121.84
2022-08-17T17:19:05.359Z,100117.56
2022-08-17T17:22:26.394Z,100126.34
2022-08-17T17:25:54.365Z,100125.28
2022-08-17T17:29:48.492Z,100122.34
2022-08-17T17:33:46.404Z,100123.94
2022-08-17T17:37:11.365Z,100119.91
2022-08-17T17:40:37.413Z,100115.13
2022-08-17T17:44:01.809Z,100112.13
2022-08-17T17:47:17.410Z,100112.13
2022-08-17T17:50:48.442Z,100105.72
2022-08-17T17:54:18.406Z,100100.59
2022-08-17T17:58:01.384Z,100102.47
2022-08-17T18:01:34.469Z,100108.00
2022-08-17T18:05:06.418Z,100097.84
2022-08-17T18:08:40.407Z,100092.78
2022-08-17T18:12:05.394Z,100100.41
2022-08-17T18:15:43.394Z,100093.72
2022-08-17T18:19:06.133Z,100084.91
2022-08-17T18:22:34.392Z,100091.53
2022-08-17T18:26:07.435Z,100093.38
2022-08-17T18:30:04.574Z,100095.47
2022-08-17T18:33:36.401Z,100101.53
2022-08-17T18:36:57.381Z,100086.59
2022-08-17T18:40:30.491Z,100094.00
2022-08-17T18:43:53.334Z,100090.25
2022-08-17T18:47:37.388Z,100097.94
2022-08-17T18:50:59.389Z,100092.31
2022-08-17T18:54:28.388Z,100094.41
2022-08-17T18:57:56.407Z,100089.84
2022-08-17T19:01:46.983Z,100094.88
2022-08-17T19:05:15.544Z,100088.72
2022-08-17T19:08:42.434Z,100092.16
2022-08-17T19:12:03.421Z,100083.56
2022-08-17T19:15:27.399Z,100094.44
2022-08-17T19:18:57.405Z,100098.09
2022-08-17T19:22:33.386Z,100090.31
2022-08-17T19:26:01.412Z,100088.19
2022-08-17T19:29:28.538Z,100084.16
2022-08-17T19:32:50.467Z,100095.31
2022-08-17T19:36:14.429Z,100092.84
2022-08-17T19:39:38.811Z,100093.03
2022-08-17T19:43:15.411Z,100097.25
2022-08-17T19:46:48.688Z,100092.19
2022-08-17T19:50:30.491Z,100093.22
2022-08-17T19:54:07.523Z,100092.66
2022-08-17T19:57:57.557Z,100094.28
2022-08-17T20:01:22.500Z,100099.84
2022-08-17T20:04:43.449Z,100100.59
2022-08-17T20:08:10.443Z,100101.63
2022-08-17T20:11:37.418Z,100107.19
2022-08-17T20:15:09.423Z,100107.16
2022-08-17T20:18:56.452Z,100113.16
2022-08-17T20:22:31.434Z,100115.13
2022-08-17T20:26:05.467Z,100108.66
2022-08-17T20:29:37.182Z,100112.53
2022-08-17T20:33:07.463Z,100117.50
2022-08-17T20:36:38.470Z,100115.34
2022-08-17T20:40:19.553Z,100117.19
2022-08-17T20:43:46.463Z,100122.25
2022-08-17T20:47:18.421Z,100126.50
2022-08-17T20:50:39.429Z,100129.16
2022-08-17T20:54:00.433Z,100140.28
2022-08-17T20:57:22.426Z,100133.28
2022-08-17T21:00:44.428Z,100136.44
2022-08-17T21:04:06.444Z,100136.19
2022-08-17T21:07:49.409Z,100135.88
2022-08-17T21:11:12.468Z,100142.66
2022-08-17T21:14:38.457Z,100139.91
2022-08-17T21:18:14.433Z,100132.97
2022-08-17T21:21:56.444Z,100136.31
2022-08-17T21:25:39.451Z,100135.75
2022-08-17T21:29:29.833Z,100141.72
2022-08-17T21:32:53.450Z,100138.44
2022-08-17T21:36:16.454Z,100139.97
2022-08-17T21:39:46.480Z,100149.69
2022-08-17T21:43:17.450Z,100148.44
2022-08-17T21:46:46.650Z,100148.59
2022-08-17T21:50:11.457Z,100144.00
2022-08-17T21:53:41.443Z,100145.75
2022-08-17T21:57:02.452Z,100151.56
2022-08-17T22:00:24.477Z,100154.69
2022-08-17T22:03:45.465Z,100160.69
2022-08-17T22:07:07.500Z,100150.00
2022-08-17T22:10:45.497Z,100158.19
2022-08-17T22:14:06.486Z,100154.44
2022-08-17T22:17:31.458Z,100156.72
2022-08-17T22:20:52.487Z,100156.16
2022-08-17T22:24:20.458Z,100151.59
2022-08-17T22:28:10.530Z,100153.34
2022-08-17T22:31:37.486Z,100164.06
2022-08-17T22:34:58.463Z,100160.06
2022-08-17T22:38:34.473Z,100156.00
2022-08-17T22:42:01.468Z,100156.94
2022-08-17T22:45:22.457Z,100150.50
2022-08-17T22:48:43.464Z,100155.78
2022-08-17T22:52:13.480Z,100162.38
2022-08-17T22:55:52.477Z,100160.88
2022-08-17T22:59:29.495Z,100159.97
2022-08-17T23:02:55.288Z,100163.91
2022-08-17T23:06:23.504Z,100159.53
2022-08-17T23:09:44.478Z,100167.38
2022-08-17T23:13:06.496Z,100156.09
2022-08-17T23:16:28.492Z,100169.91
2022-08-17T23:19:49.485Z,100166.59
2022-08-17T23:23:11.505Z,100169.81
2022-08-17T23:26:34.495Z,100172.91
2022-08-17T23:29:56.491Z,100178.19
2022-08-17T23:33:20.496Z,100176.81
2022-08-17T23:36:41.493Z,100179.44
2022-08-17T23:40:02.533Z,100179.22
2022-08-17T23:43:28.213Z,100172.31
2022-08-17T23:46:50.515Z,100178.63
2022-08-17T23:50:12.475Z,100178.53
2022-08-17T23:53:33.535Z,100187.72
2022-08-17T23:56:54.506Z,100177.28
